createdAt,value
2022-09-17T00:01:08.147Z,100.00
2022-09-17T00:03:35.555Z,100.00
2022-09-17T00:06:06.891Z,100.00
2022-09-17T00:08:35.425Z,100.00
2022-09-17T00:11:09.898Z,100.00
2022-09-17T00:13:37.151Z,100.00
2022-09-17T00:16:04.135Z,100.00
2022-09-17T00:18:30.840Z,100.00
2022-09-17T00:20:57.558Z,100.00
2022-09-17T00:23:24.540Z,100.00
2022-09-17T00:25:51.314Z,100.00
2022-09-17T00:28:18.431Z,100.00
2022-09-17T00:30:46.581Z,99.89
2022-09-17T00:33:18.089Z,100.00
2022-09-17T00:35:45.162Z,100.00
2022-09-17T00:38:12.027Z,100.00
2022-09-17T00:40:39.136Z,99.54
2022-09-17T00:43:12.359Z,98.80
2022-09-17T00:45:40.038Z,98.25
2022-09-17T00:48:07.632Z,98.61
2022-09-17T00:50:41.461Z,98.63
2022-09-17T00:53:13.699Z,99.21
2022-09-17T00:55:44.436Z,99.80
2022-09-17T00:58:13.247Z,100.00
2022-09-17T01:00:40.492Z,99.97
2022-09-17T01:03:07.592Z,100.00
2022-09-17T01:06:11.889Z,100.00
2022-09-17T01:08:48.944Z,100.00
2022-09-17T01:11:39.930Z,99.78
2022-09-17T01:14:25.447Z,99.70
2022-09-17T01:17:01.124Z,100.00
2022-09-17T01:19:55.815Z,99.64
2022-09-17T01:22:46.151Z,99.22
2022-09-17T01:25:12.800Z,98.96
2022-09-17T01:28:20.768Z,98.73
2022-09-17T01:31:17.602Z,98.58
2022-09-17T01:34:01.707Z,98.45
2022-09-17T01:37:01.263Z,98.17
2022-09-17T01:39:58.150Z,98.16
2022-09-17T01:42:38.863Z,97.73
2022-09-17T01:45:23.617Z,97.93
2022-09-17T01:47:55.068Z,98.31
2022-09-17T01:50:33.556Z,98.16
2022-09-17T01:53:02.972Z,97.83
2022-09-17T01:55:33.776Z,97.77
2022-09-17T01:58:20.680Z,97.51
2022-09-17T02:00:55.615Z,97.67
2022-09-17T02:03:30.549Z,97.67
2022-09-17T02:06:05.691Z,97.49
2022-09-17T02:08:58.093Z,97.26
2022-09-17T02:11:25.116Z,97.29
2022-09-17T02:14:00.955Z,97.43
2022-09-17T02:16:31.095Z,97.10
2022-09-17T02:19:06.947Z,96.90
2022-09-17T02:21:47.388Z,96.88
2022-09-17T02:24:36.823Z,97.30
2022-09-17T02:27:17.710Z,97.09
2022-09-17T02:29:45.174Z,96.69
2022-09-17T02:32:12.989Z,97.19
2022-09-17T02:34:40.557Z,96.84
2022-09-17T02:37:08.057Z,97.03
2022-09-17T02:39:34.943Z,96.86
2022-09-17T02:42:10.455Z,96.83
2022-09-17T02:44:56.538Z,96.26
2022-09-17T02:47:38.399Z,96.43
2022-09-17T02:50:23.528Z,96.98
2022-09-17T02:53:23.762Z,97.53
2022-09-17T02:56:13.646Z,97.50
2022-09-17T02:58:59.424Z,98.20
2022-09-17T03:01:35.840Z,98.22
2022-09-17T03:04:05.314Z,98.61
2022-09-17T03:06:32.353Z,99.49
2022-09-17T03:08:59.095Z,99.67
2022-09-17T03:11:25.833Z,100.00
2022-09-17T03:13:52.704Z,99.74
2022-09-17T03:16:19.438Z,99.97
2022-09-17T03:18:46.289Z,99.50
2022-09-17T03:21:13.003Z,99.56
2022-09-17T03:23:39.937Z,99.42
2022-09-17T03:26:06.928Z,99.12
2022-09-17T03:28:33.965Z,99.11
2022-09-17T03:31:00.767Z,98.79
2022-09-17T03:33:27.592Z,98.72
2022-09-17T03:35:54.323Z,98.45
2022-09-17T03:38:21.237Z,98.56
2022-09-17T03:41:07.189Z,98.38
2022-09-17T03:43:34.667Z,97.97
2022-09-17T03:46:01.759Z,98.15
2022-09-17T03:48:29.668Z,98.23
2022-09-17T03:50:57.023Z,98.24
2022-09-17T03:53:23.986Z,98.21
2022-09-17T03:55:50.784Z,98.34
2022-09-17T03:58:17.497Z,98.04
2022-09-17T04:00:44.544Z,98.10
2022-09-17T04:03:11.293Z,98.30
2022-09-17T04:05:38.174Z,98.23
2022-09-17T04:08:05.026Z,98.40
2022-09-17T04:10:31.743Z,98.10
2022-09-17T04:12:58.454Z,98.42
2022-09-17T04:15:25.377Z,97.96
2022-09-17T04:17:56.602Z,97.98
2022-09-17T04:20:27.374Z,97.91
2022-09-17T04:22:54.477Z,97.94
2022-09-17T04:25:21.273Z,97.80
2022-09-17T04:27:48.092Z,97.92
2022-09-17T04:30:15.024Z,97.94
2022-09-17T04:32:43.063Z,97.99
2022-09-17T04:35:10.079Z,98.18
2022-09-17T04:37:37.263Z,98.52
2022-09-17T04:40:07.878Z,98.75
2022-09-17T04:42:35.072Z,98.82
2022-09-17T04:45:01.872Z,98.52
2022-09-17T04:47:28.550Z,98.19
2022-09-17T04:49:55.246Z,97.97
2022-09-17T04:52:21.890Z,97.47
2022-09-17T04:54:48.663Z,97.14
2022-09-17T04:57:15.448Z,96.56
2022-09-17T04:59:42.532Z,96.42
2022-09-17T05:02:09.281Z,96.12
2022-09-17T05:04:36.075Z,95.84
2022-09-17T05:07:02.918Z,96.01
2022-09-17T05:09:29.626Z,95.96
2022-09-17T05:11:56.344Z,96.04
2022-09-17T05:14:23.228Z,96.21
2022-09-17T05:16:49.934Z,96.04
2022-09-17T05:19:17.466Z,96.27
2022-09-17T05:21:44.297Z,96.36
2022-09-17T05:24:11.039Z,96.29
2022-09-17T05:26:37.826Z,96.42
2022-09-17T05:29:04.861Z,96.78
2022-09-17T05:31:31.785Z,97.08
2022-09-17T05:33:59.040Z,97.16
2022-09-17T05:36:25.771Z,97.56
2022-09-17T05:38:52.464Z,97.29
2022-09-17T05:41:19.255Z,96.25
2022-09-17T05:43:46.130Z,95.57
2022-09-17T05:46:13.004Z,95.58
2022-09-17T05:48:39.720Z,95.76
2022-09-17T05:51:06.431Z,95.77
2022-09-17T05:53:33.228Z,95.89
2022-09-17T05:56:00.241Z,95.59
2022-09-17T05:58:27.305Z,94.97
2022-09-17T06:00:54.038Z,94.92
2022-09-17T06:03:22.710Z,94.70
2022-09-17T06:06:01.158Z,94.03
2022-09-17T06:08:29.044Z,92.96
2022-09-17T06:10:59.088Z,93.34
2022-09-17T06:13:29.025Z,93.20
2022-09-17T06:15:55.821Z,92.87
2022-09-17T06:18:22.713Z,92.48
2022-09-17T06:20:57.182Z,92.56
2022-09-17T06:23:24.849Z,92.24
2022-09-17T06:26:01.550Z,92.28
2022-09-17T06:28:28.678Z,90.95
2022-09-17T06:30:57.294Z,93.18
2022-09-17T06:33:24.285Z,92.91
2022-09-17T06:36:00.813Z,92.79
2022-09-17T06:38:28.901Z,91.22
2022-09-17T06:40:55.988Z,90.63
2022-09-17T06:43:23.421Z,90.21
2022-09-17T06:45:54.360Z,89.71
2022-09-17T06:48:21.977Z,89.01
2022-09-17T06:50:49.430Z,89.59
2022-09-17T06:53:16.339Z,87.02
2022-09-17T06:55:43.723Z,87.59
2022-09-17T06:58:10.413Z,87.92
2022-09-17T07:00:37.127Z,84.89
2022-09-17T07:03:04.010Z,83.86
2022-09-17T07:05:32.852Z,80.86
2022-09-17T07:08:03.249Z,81.08
2022-09-17T07:10:31.017Z,79.24
2022-09-17T07:12:59.049Z,78.83
2022-09-17T07:15:25.944Z,77.99
2022-09-17T07:17:52.969Z,77.46
2022-09-17T07:20:19.995Z,77.01
2022-09-17T07:22:54.839Z,76.85
2022-09-17T07:25:21.559Z,76.06
2022-09-17T07:27:48.321Z,75.17
2022-09-17T07:30:15.533Z,74.92
2022-09-17T07:32:42.363Z,75.59
2022-09-17T07:35:09.302Z,76.11
2022-09-17T07:37:36.001Z,77.17
2022-09-17T07:40:03.203Z,76.24
2022-09-17T07:42:29.965Z,75.45
2022-09-17T07:45:01.836Z,73.85
2022-09-17T07:47:29.163Z,73.98
2022-09-17T07:49:56.064Z,73.89
2022-09-17T07:52:22.803Z,73.70
2022-09-17T07:54:49.492Z,73.57
2022-09-17T07:57:16.403Z,73.66
2022-09-17T07:59:43.133Z,73.50
2022-09-17T08:02:13.808Z,71.65
2022-09-17T08:04:44.026Z,72.04
2022-09-17T08:07:14.133Z,71.06
2022-09-17T08:09:41.005Z,71.67
2022-09-17T08:12:08.056Z,70.25
2022-09-17T08:14:34.862Z,69.97
2022-09-17T08:17:01.599Z,69.29
2022-09-17T08:19:31.198Z,68.87
2022-09-17T08:21:57.939Z,68.09
2022-09-17T08:24:24.811Z,66.93
2022-09-17T08:26:51.935Z,67.07
2022-09-17T08:29:19.046Z,66.36
2022-09-17T08:31:45.881Z,65.35
2022-09-17T08:34:13.422Z,65.24
2022-09-17T08:36:40.251Z,65.01
2022-09-17T08:39:07.171Z,63.14
2022-09-17T08:41:39.898Z,62.39
2022-09-17T08:44:15.899Z,61.70
2022-09-17T08:46:52.318Z,59.09
2022-09-17T08:49:34.105Z,55.32
2022-09-17T08:52:30.098Z,55.76
2022-09-17T08:55:38.184Z,53.80
2022-09-17T08:58:19.979Z,50.73
2022-09-17T09:00:54.054Z,50.95
2022-09-17T09:03:26.672Z,49.11
2022-09-17T09:05:53.404Z,48.31
2022-09-17T09:08:32.808Z,48.71
2022-09-17T09:11:02.890Z,48.93
2022-09-17T09:13:43.088Z,49.28
2022-09-17T09:16:19.564Z,49.17
2022-09-17T09:18:51.451Z,49.13
2022-09-17T09:21:28.374Z,48.91
2022-09-17T09:23:58.627Z,49.66
2022-09-17T09:26:40.483Z,50.03
2022-09-17T09:29:14.567Z,50.47
2022-09-17T09:31:59.745Z,50.21
2022-09-17T09:34:28.872Z,50.70
2022-09-17T09:37:12.722Z,51.06
2022-09-17T09:39:45.702Z,52.37
2022-09-17T09:42:34.728Z,53.07
2022-09-17T09:45:39.890Z,54.37
2022-09-17T09:48:23.168Z,55.04
2022-09-17T09:51:08.736Z,55.83
2022-09-17T09:53:44.461Z,56.54
2022-09-17T09:56:29.549Z,57.29
2022-09-17T09:58:56.285Z,57.72
2022-09-17T10:01:27.731Z,57.73
2022-09-17T10:03:58.242Z,57.99
2022-09-17T10:06:29.228Z,58.35
2022-09-17T10:08:55.950Z,58.63
2022-09-17T10:11:28.609Z,59.42
2022-09-17T10:14:25.656Z,60.25
2022-09-17T10:17:15.769Z,60.59
2022-09-17T10:19:43.623Z,60.86
2022-09-17T10:22:26.097Z,61.15
2022-09-17T10:24:55.458Z,61.77
2022-09-17T10:27:24.492Z,62.37
2022-09-17T10:30:00.716Z,62.39
2022-09-17T10:32:27.438Z,62.71
2022-09-17T10:35:05.804Z,63.59
2022-09-17T10:37:55.002Z,63.75
2022-09-17T10:40:21.787Z,64.49
2022-09-17T10:42:50.750Z,66.77
2022-09-17T10:45:31.608Z,69.04
2022-09-17T10:48:00.215Z,71.58
2022-09-17T10:50:32.163Z,72.59
2022-09-17T10:53:06.096Z,73.15
2022-09-17T10:55:43.245Z,75.27
2022-09-17T10:58:51.486Z,75.71
2022-09-17T11:02:04.298Z,77.40
2022-09-17T11:05:08.205Z,77.53
2022-09-17T11:08:12.478Z,77.03
2022-09-17T11:10:43.434Z,76.75
2022-09-17T11:13:29.107Z,76.94
2022-09-17T11:16:17.679Z,77.09
2022-09-17T11:19:10.539Z,77.48
2022-09-17T11:22:10.142Z,77.71
2022-09-17T11:24:50.810Z,78.12
2022-09-17T11:27:37.720Z,80.17
2022-09-17T11:30:15.414Z,80.76
2022-09-17T11:33:13.318Z,80.55
2022-09-17T11:35:47.011Z,80.53
2022-09-17T11:38:22.778Z,80.02
2022-09-17T11:41:04.816Z,79.76
2022-09-17T11:43:43.210Z,78.93
2022-09-17T11:46:29.409Z,79.19
2022-09-17T11:49:12.703Z,80.01
2022-09-17T11:52:09.126Z,79.64
2022-09-17T11:54:51.171Z,78.45
2022-09-17T11:57:32.946Z,75.45
2022-09-17T12:00:14.246Z,73.71
2022-09-17T12:02:59.888Z,72.09
2022-09-17T12:05:50.122Z,71.32
2022-09-17T12:08:16.752Z,72.15
2022-09-17T12:11:14.705Z,72.47
2022-09-17T12:13:49.303Z,71.66
2022-09-17T12:16:19.166Z,71.51
2022-09-17T12:19:07.785Z,70.25
2022-09-17T12:21:45.732Z,70.89
2022-09-17T12:24:26.004Z,73.51
2022-09-17T12:27:14.118Z,74.58
2022-09-17T12:29:47.011Z,74.97
2022-09-17T12:32:41.593Z,75.06
2022-09-17T12:35:53.052Z,74.76
2022-09-17T12:38:35.372Z,74.83
2022-09-17T12:41:24.812Z,73.91
2022-09-17T12:44:22.503Z,73.21
2022-09-17T12:47:21.228Z,72.75
2022-09-17T12:49:55.748Z,71.64
2022-09-17T12:52:37.770Z,69.46
2022-09-17T12:55:19.737Z,67.82
2022-09-17T12:57:49.381Z,66.57
2022-09-17T13:00:17.062Z,65.74
2022-09-17T13:02:55.932Z,64.30
2022-09-17T13:05:25.620Z,62.74
2022-09-17T13:08:12.686Z,62.13
2022-09-17T13:11:10.421Z,61.88
2022-09-17T13:13:37.236Z,61.49
2022-09-17T13:16:16.916Z,60.84
2022-09-17T13:19:12.304Z,60.63
2022-09-17T13:21:51.571Z,60.35
2022-09-17T13:24:22.637Z,59.39
2022-09-17T13:26:49.464Z,59.59
2022-09-17T13:29:54.849Z,58.98
2022-09-17T13:32:49.329Z,59.39
2022-09-17T13:35:16.042Z,60.08
2022-09-17T13:37:45.296Z,60.82
2022-09-17T13:40:34.536Z,61.03
2022-09-17T13:43:04.055Z,62.07
2022-09-17T13:45:32.131Z,62.51
2022-09-17T13:48:02.372Z,63.24
2022-09-17T13:50:33.392Z,64.49
2022-09-17T13:53:07.348Z,66.44
2022-09-17T13:55:52.443Z,67.23
2022-09-17T13:58:19.062Z,68.24
2022-09-17T14:01:05.279Z,69.70
2022-09-17T14:03:34.182Z,70.40
2022-09-17T14:06:11.056Z,71.59
2022-09-17T14:08:43.857Z,72.09
2022-09-17T14:11:22.617Z,73.14
2022-09-17T14:13:53.211Z,72.93
2022-09-17T14:16:35.874Z,73.34
2022-09-17T14:19:38.813Z,73.18
2022-09-17T14:22:05.862Z,73.29
2022-09-17T14:24:44.619Z,73.04
2022-09-17T14:27:14.382Z,73.45
2022-09-17T14:30:01.211Z,73.51
2022-09-17T14:32:34.292Z,73.38
2022-09-17T14:35:04.134Z,74.11
2022-09-17T14:37:33.352Z,73.85
2022-09-17T14:40:00.164Z,74.06
2022-09-17T14:42:35.814Z,74.20
2022-09-17T14:45:06.470Z,74.26
2022-09-17T14:47:33.250Z,75.58
2022-09-17T14:50:23.852Z,76.68
2022-09-17T14:52:54.678Z,77.19
2022-09-17T14:55:24.211Z,77.74
2022-09-17T14:57:54.179Z,79.37
2022-09-17T15:00:24.484Z,79.40
2022-09-17T15:02:59.731Z,78.70
2022-09-17T15:05:33.875Z,78.30
2022-09-17T15:08:11.406Z,79.54
2022-09-17T15:10:47.168Z,80.22
2022-09-17T15:13:27.182Z,80.29
2022-09-17T15:16:03.809Z,80.81
2022-09-17T15:18:55.072Z,80.72
2022-09-17T15:21:29.567Z,81.11
2022-09-17T15:24:07.346Z,81.21
2022-09-17T15:26:40.114Z,81.37
2022-09-17T15:29:06.921Z,81.26
2022-09-17T15:31:36.769Z,81.39
2022-09-17T15:34:03.933Z,81.94
2022-09-17T15:36:31.821Z,82.23
2022-09-17T15:38:59.186Z,82.55
2022-09-17T15:41:36.126Z,83.28
2022-09-17T15:44:32.070Z,84.83
2022-09-17T15:47:39.184Z,85.09
2022-09-17T15:50:14.729Z,86.58
2022-09-17T15:52:42.348Z,86.20
2022-09-17T15:55:31.035Z,86.85
2022-09-17T15:57:59.661Z,87.17
2022-09-17T16:00:26.472Z,87.52
2022-09-17T16:02:54.338Z,87.93
2022-09-17T16:05:23.870Z,88.66
2022-09-17T16:07:51.226Z,89.35
2022-09-17T16:10:18.297Z,89.24
2022-09-17T16:12:45.385Z,89.56
2022-09-17T16:15:13.067Z,89.83
2022-09-17T16:17:44.813Z,89.91
2022-09-17T16:20:21.968Z,91.14
2022-09-17T16:22:49.104Z,93.94
2022-09-17T16:25:23.236Z,95.82
2022-09-17T16:28:28.564Z,96.86
2022-09-17T16:30:55.359Z,97.12
2022-09-17T16:33:22.239Z,95.93
2022-09-17T16:35:49.136Z,95.43
2022-09-17T16:38:15.977Z,95.40
2022-09-17T16:40:45.015Z,95.00
2022-09-17T16:43:11.791Z,95.30
2022-09-17T16:45:38.551Z,96.29
2022-09-17T16:48:06.753Z,96.33
2022-09-17T16:50:34.414Z,96.71
2022-09-17T16:53:04.895Z,95.81
2022-09-17T16:55:32.274Z,95.83
2022-09-17T16:57:59.164Z,95.23
2022-09-17T17:00:25.941Z,95.32
2022-09-17T17:02:57.508Z,95.38
2022-09-17T17:05:26.116Z,95.26
2022-09-17T17:07:55.274Z,95.07
2022-09-17T17:10:23.206Z,94.82
2022-09-17T17:12:50.076Z,95.91
2022-09-17T17:15:17.076Z,95.38
2022-09-17T17:17:43.865Z,95.24
2022-09-17T17:20:13.545Z,95.29
2022-09-17T17:22:44.038Z,95.29
2022-09-17T17:25:13.436Z,95.97
2022-09-17T17:27:40.835Z,95.72
2022-09-17T17:30:09.402Z,95.63
2022-09-17T17:32:37.181Z,95.62
2022-09-17T17:35:06.123Z,96.05
2022-09-17T17:37:32.878Z,95.85
2022-09-17T17:40:00.137Z,95.70
2022-09-17T17:42:26.981Z,96.65
2022-09-17T17:44:55.579Z,97.21
2022-09-17T17:47:22.235Z,97.45
2022-09-17T17:49:49.040Z,96.81
2022-09-17T17:52:15.715Z,96.57
2022-09-17T17:54:42.489Z,96.34
2022-09-17T17:57:10.440Z,96.20
2022-09-17T17:59:37.164Z,96.04
2022-09-17T18:02:04.201Z,96.46
2022-09-17T18:04:31.053Z,96.62
2022-09-17T18:06:57.765Z,97.29
2022-09-17T18:09:24.903Z,97.50
2022-09-17T18:11:51.553Z,97.15
2022-09-17T18:14:18.301Z,96.82
2022-09-17T18:16:44.994Z,96.98
2022-09-17T18:19:12.144Z,96.94
2022-09-17T18:21:38.976Z,96.99
2022-09-17T18:24:05.882Z,96.89
2022-09-17T18:26:32.727Z,97.23
2022-09-17T18:29:01.443Z,96.98
2022-09-17T18:31:33.224Z,97.12
2022-09-17T18:34:04.958Z,97.29
2022-09-17T18:36:34.733Z,97.57
2022-09-17T18:41:52.834Z,97.42
2022-09-17T18:44:21.841Z,97.18
2022-09-17T18:46:50.240Z,97.32
2022-09-17T18:49:17.516Z,97.24
2022-09-17T18:51:44.286Z,97.07
2022-09-17T18:54:12.787Z,97.02
2022-09-17T18:56:41.692Z,97.00
2022-09-17T18:59:09.784Z,97.16
2022-09-17T19:01:36.640Z,97.37
2022-09-17T19:04:03.900Z,97.08
2022-09-17T19:06:32.235Z,97.46
2022-09-17T19:09:01.234Z,97.59
2022-09-17T19:11:28.458Z,97.26
2022-09-17T19:13:55.547Z,97.10
2022-09-17T19:16:22.724Z,97.39
2022-09-17T19:18:49.717Z,97.72
2022-09-17T19:21:21.775Z,98.28
2022-09-17T19:23:50.625Z,98.84
2022-09-17T19:26:20.433Z,98.81
2022-09-17T19:28:48.049Z,99.38
2022-09-17T19:31:17.175Z,99.16
2022-09-17T19:33:44.784Z,98.63
2022-09-17T19:36:17.080Z,98.15
2022-09-17T19:38:44.594Z,97.91
2022-09-17T19:41:13.172Z,98.30
2022-09-17T19:43:40.668Z,99.13
2022-09-17T19:46:11.512Z,98.78
2022-09-17T19:48:43.740Z,99.30
2022-09-17T19:51:10.561Z,99.76
2022-09-17T19:53:37.310Z,100.00
2022-09-17T19:56:04.847Z,100.00
2022-09-17T19:58:31.498Z,100.00
2022-09-17T20:00:59.276Z,100.00
2022-09-17T20:03:26.757Z,100.00
2022-09-17T20:05:59.627Z,99.95
2022-09-17T20:08:26.624Z,99.56
2022-09-17T20:10:54.459Z,99.75
2022-09-17T20:13:21.920Z,100.00
2022-09-17T20:15:48.999Z,100.00
2022-09-17T20:18:18.661Z,99.64
2022-09-17T20:20:48.021Z,99.80
2022-09-17T20:23:14.800Z,99.29
2022-09-17T20:25:41.466Z,98.82
2022-09-17T20:28:08.387Z,98.95
2022-09-17T20:30:35.067Z,98.74
2022-09-17T20:33:01.799Z,98.54
2022-09-17T20:35:28.503Z,98.44
2022-09-17T20:38:51.552Z,98.43
2022-09-17T20:40:41.960Z,98.27
2022-09-17T20:43:08.696Z,98.45
2022-09-17T20:45:35.434Z,98.16
2022-09-17T20:48:02.447Z,98.46
2022-09-17T20:50:29.302Z,98.60
2022-09-17T20:52:56.463Z,98.52
2022-09-17T20:55:23.316Z,98.67
2022-09-17T20:57:53.619Z,98.42
2022-09-17T21:00:21.499Z,98.90
2022-09-17T21:02:56.396Z,99.09
2022-09-17T21:05:23.208Z,99.04
2022-09-17T21:07:49.943Z,98.89
2022-09-17T21:10:16.701Z,99.06
2022-09-17T21:12:43.368Z,98.98
2022-09-17T21:15:10.495Z,98.94
2022-09-17T21:17:40.674Z,98.78
2022-09-17T21:20:07.995Z,99.06
2022-09-17T21:22:34.733Z,98.83
2022-09-17T21:25:01.582Z,98.69
2022-09-17T21:27:31.581Z,98.84
2022-09-17T21:29:58.724Z,98.97
2022-09-17T21:32:25.489Z,98.97
2022-09-17T21:34:52.188Z,98.72
2022-09-17T21:37:19.036Z,99.08
2022-09-17T21:39:45.723Z,99.22
2022-09-17T21:42:12.420Z,99.38
2022-09-17T21:44:39.201Z,99.89
2022-09-17T21:47:09.165Z,99.76
2022-09-17T21:49:40.145Z,99.39
2022-09-17T21:52:06.818Z,99.40
2022-09-17T21:54:33.534Z,99.82
2022-09-17T21:57:00.201Z,100.00
2022-09-17T21:59:27.319Z,100.00
2022-09-17T22:01:54.050Z,100.00
2022-09-17T22:04:26.099Z,100.00
2022-09-17T22:06:53.406Z,100.00
2022-09-17T22:09:25.445Z,100.00
2022-09-17T22:11:53.389Z,100.00
2022-09-17T22:14:24.987Z,100.00
2022-09-17T22:16:54.529Z,100.00
2022-09-17T22:19:23.033Z,100.00
2022-09-17T22:21:52.421Z,100.00
2022-09-17T22:24:21.137Z,100.00
2022-09-17T22:26:55.754Z,100.00
2022-09-17T22:29:24.795Z,100.00
2022-09-17T22:31:51.621Z,100.00
2022-09-17T22:34:22.993Z,100.00
2022-09-17T22:36:50.049Z,100.00
2022-09-17T22:39:19.097Z,100.00
2022-09-17T22:41:46.312Z,100.00
2022-09-17T22:44:21.874Z,100.00
2022-09-17T22:46:51.345Z,100.00
2022-09-17T22:49:19.180Z,100.00
2022-09-17T22:51:47.218Z,100.00
2022-09-17T22:54:15.889Z,100.00
2022-09-17T22:56:43.940Z,100.00
2022-09-17T22:59:11.154Z,100.00
2022-09-17T23:01:39.750Z,100.00
2022-09-17T23:04:06.761Z,100.00
2022-09-17T23:06:36.538Z,100.00
2022-09-17T23:09:04.001Z,100.00
2022-09-17T23:11:33.970Z,100.00
2022-09-17T23:14:03.105Z,100.00
2022-09-17T23:16:39.762Z,100.00
2022-09-17T23:19:06.630Z,100.00
2022-09-17T23:21:33.495Z,100.00
2022-09-17T23:24:00.587Z,100.00
2022-09-17T23:26:27.726Z,100.00
2022-09-17T23:28:54.495Z,100.00
2022-09-17T23:31:26.901Z,100.00
2022-09-17T23:33:55.538Z,100.00
2022-09-17T23:36:28.271Z,100.00
2022-09-17T23:38:56.281Z,100.00
2022-09-17T23:41:25.522Z,100.00
2022-09-17T23:43:54.675Z,100.00
2022-09-17T23:46:23.294Z,100.00
2022-09-17T23:48:51.659Z,100.00
2022-09-17T23:51:18.456Z,100.00
2022-09-17T23:53:45.881Z,100.00
2022-09-17T23:56:15.672Z,100.00
2022-09-17T23:58:42.432Z,100.00
